createdAt,value
2019-04-14T00:00:11.917Z,28.53
2019-04-14T00:02:51.194Z,30.50
2019-04-14T00:05:23.275Z,28.87
2019-04-14T00:07:53.833Z,29.93
2019-04-14T00:10:25.233Z,29.20
2019-04-14T00:12:55.640Z,28.87
2019-04-14T00:15:33.266Z,29.13
2019-04-14T00:17:58.945Z,28.77
2019-04-14T00:20:29.383Z,31.17
2019-04-14T00:22:59.769Z,32.33
2019-04-14T00:25:30.513Z,37.73
2019-04-14T00:28:02.938Z,43.10
2019-04-14T00:30:33.765Z,39.90
2019-04-14T00:33:06.266Z,43.93
2019-04-14T00:35:44.860Z,42.93
2019-04-14T00:38:28.092Z,48.27
2019-04-14T00:41:00.698Z,50.77
2019-04-14T00:43:41.721Z,49.13
2019-04-14T00:46:23.283Z,35.90
2019-04-14T00:48:54.540Z,29.53
2019-04-14T00:51:24.649Z,28.97
2019-04-14T00:53:55.667Z,36.33
2019-04-14T00:56:25.994Z,34.60
2019-04-14T00:58:56.159Z,42.97
2019-04-14T01:01:26.523Z,34.20
2019-04-14T01:03:56.983Z,32.50
2019-04-14T01:06:27.335Z,36.23
2019-04-14T01:08:57.569Z,36.73
2019-04-14T01:11:29.115Z,35.20
2019-04-14T01:13:59.430Z,36.83
2019-04-14T01:16:29.788Z,39.83
2019-04-14T01:19:00.443Z,38.67
2019-04-14T01:21:32.718Z,32.27
2019-04-14T01:24:03.192Z,29.13
2019-04-14T01:26:33.488Z,29.17
2019-04-14T01:29:03.707Z,30.00
2019-04-14T01:31:33.922Z,38.17
2019-04-14T01:34:04.151Z,50.83
2019-04-14T01:36:34.498Z,45.00
2019-04-14T01:39:06.953Z,42.10
2019-04-14T01:41:37.460Z,46.30
2019-04-14T01:44:07.439Z,40.87
2019-04-14T01:46:37.510Z,31.00
2019-04-14T01:49:07.490Z,29.83
2019-04-14T01:51:46.346Z,29.67
2019-04-14T01:54:19.026Z,30.30
2019-04-14T01:57:00.864Z,30.97
2019-04-14T01:59:30.851Z,31.03
2019-04-14T02:02:01.604Z,31.67
2019-04-14T02:04:31.695Z,29.87
2019-04-14T02:07:03.829Z,29.03
2019-04-14T02:09:33.987Z,33.40
2019-04-14T02:12:06.235Z,38.00
2019-04-14T02:14:36.526Z,32.87
2019-04-14T02:17:07.839Z,29.33
2019-04-14T02:19:39.288Z,30.73
2019-04-14T02:22:09.626Z,30.07
2019-04-14T02:24:39.623Z,30.17
2019-04-14T02:27:23.142Z,30.87
2019-04-14T02:29:53.837Z,30.03
2019-04-14T02:32:52.568Z,30.60
2019-04-14T02:35:40.726Z,31.00
2019-04-14T02:38:02.007Z,32.43
2019-04-14T02:40:27.376Z,31.93
2019-04-14T02:42:54.180Z,32.90
2019-04-14T02:45:35.088Z,32.73
2019-04-14T02:50:30.317Z,32.63
2019-04-14T02:53:09.047Z,32.20
2019-04-14T02:55:42.496Z,31.97
2019-04-14T02:58:09.975Z,32.43
2019-04-14T03:03:23.421Z,31.97
2019-04-14T03:05:53.372Z,32.67
2019-04-14T03:15:56.804Z,29.87
2019-04-14T03:21:19.988Z,30.87
2019-04-14T03:23:56.367Z,30.03
2019-04-14T03:26:45.067Z,29.53
2019-04-14T03:29:19.215Z,30.83
2019-04-14T03:37:31.106Z,30.40
2019-04-14T03:39:27.372Z,28.97
2019-04-14T03:41:53.100Z,27.77
2019-04-14T03:44:32.991Z,28.50
2019-04-14T03:47:08.689Z,28.53
2019-04-14T03:49:31.760Z,30.07
2019-04-14T03:52:03.705Z,30.17
2019-04-14T03:54:27.353Z,29.27
2019-04-14T03:56:48.964Z,32.00
2019-04-14T03:59:21.668Z,31.37
2019-04-14T04:01:52.402Z,33.37
2019-04-14T04:04:22.800Z,32.07
2019-04-14T04:06:53.197Z,32.67
2019-04-14T04:09:25.713Z,31.80
2019-04-14T04:11:56.336Z,33.80
2019-04-14T04:14:27.623Z,33.07
2019-04-14T04:17:01.465Z,34.50
2019-04-14T04:19:38.923Z,33.90
2019-04-14T04:22:17.194Z,35.50
2019-04-14T04:24:52.189Z,37.03
2019-04-14T04:27:41.909Z,36.53
2019-04-14T04:30:14.424Z,36.80
2019-04-14T04:32:52.146Z,37.10
2019-04-14T04:35:32.775Z,38.10
2019-04-14T04:38:08.139Z,37.57
2019-04-14T04:40:39.631Z,38.83
2019-04-14T04:43:10.173Z,38.63
2019-04-14T04:45:40.893Z,38.83
2019-04-14T04:48:11.036Z,38.07
2019-04-14T04:50:45.245Z,39.23
2019-04-14T04:53:15.839Z,36.60
2019-04-14T04:55:46.156Z,38.90
2019-04-14T04:58:19.423Z,38.10
2019-04-14T05:00:52.554Z,37.63
2019-04-14T05:03:21.368Z,39.30
2019-04-14T05:06:11.324Z,37.40
2019-04-14T05:08:55.408Z,37.17
2019-04-14T05:11:27.369Z,36.53
2019-04-14T05:14:00.015Z,36.30
2019-04-14T05:16:30.281Z,35.30
2019-04-14T05:19:12.196Z,34.30
2019-04-14T05:21:32.168Z,34.97
2019-04-14T05:24:02.836Z,35.90
2019-04-14T05:26:33.156Z,35.27
2019-04-14T05:29:03.595Z,36.37
2019-04-14T05:31:33.832Z,34.67
2019-04-14T05:34:04.407Z,34.97
2019-04-14T05:36:36.736Z,34.00
2019-04-14T05:39:07.200Z,35.50
2019-04-14T05:41:37.618Z,33.93
2019-04-14T05:44:09.910Z,33.50
2019-04-14T05:46:43.111Z,32.70
2019-04-14T05:49:26.276Z,32.80
2019-04-14T05:51:57.019Z,33.97
2019-04-14T05:54:27.486Z,32.43
2019-04-14T05:56:58.001Z,32.97
2019-04-14T05:59:28.604Z,31.33
2019-04-14T06:01:59.431Z,32.17
2019-04-14T06:04:30.934Z,31.57
2019-04-14T06:07:02.330Z,31.53
2019-04-14T06:09:32.436Z,33.40
2019-04-14T06:12:02.612Z,32.43
2019-04-14T06:14:32.653Z,33.17
2019-04-14T06:17:03.798Z,31.23
2019-04-14T06:19:39.040Z,32.37
2019-04-14T06:22:05.698Z,31.37
2019-04-14T06:24:35.686Z,30.73
2019-04-14T06:27:05.751Z,31.83
2019-04-14T06:29:35.728Z,32.07
2019-04-14T06:32:07.601Z,32.03
2019-04-14T06:34:51.154Z,32.03
2019-04-14T06:37:22.801Z,31.47
2019-04-14T06:40:00.404Z,31.17
2019-04-14T06:42:30.724Z,30.77
2019-04-14T06:45:00.867Z,31.30
2019-04-14T06:47:30.947Z,31.87
2019-04-14T06:50:00.915Z,32.13
2019-04-14T06:52:32.195Z,31.90
2019-04-14T06:55:02.145Z,31.73
2019-04-14T06:57:33.482Z,33.07
2019-04-14T07:00:03.854Z,31.70
2019-04-14T07:02:35.234Z,31.60
2019-04-14T07:05:06.612Z,30.93
2019-04-14T07:07:37.825Z,32.30
2019-04-14T07:10:09.143Z,32.27
2019-04-14T07:12:39.433Z,32.03
2019-04-14T07:15:09.521Z,31.43
2019-04-14T07:17:41.794Z,32.23
2019-04-14T07:20:12.253Z,31.50
2019-04-14T07:22:54.906Z,31.60
2019-04-14T07:25:24.953Z,32.23
2019-04-14T07:27:55.118Z,32.50
2019-04-14T07:30:42.954Z,31.23
2019-04-14T07:33:14.711Z,30.43
2019-04-14T07:35:46.332Z,31.47
2019-04-14T07:38:21.779Z,31.70
2019-04-14T07:41:05.727Z,32.33
2019-04-14T07:43:46.235Z,31.73
2019-04-14T07:46:23.700Z,31.63
2019-04-14T07:49:12.090Z,30.73
2019-04-14T07:51:55.826Z,31.30
2019-04-14T07:54:43.464Z,30.30
2019-04-14T07:57:33.515Z,29.87
2019-04-14T08:00:06.767Z,30.43
2019-04-14T08:02:41.629Z,29.83
2019-04-14T08:05:13.472Z,29.20
2019-04-14T08:07:44.695Z,29.90
2019-04-14T08:10:14.932Z,30.90
2019-04-14T08:12:44.901Z,31.57
2019-04-14T08:15:15.430Z,30.17
2019-04-14T08:17:46.494Z,29.93
2019-04-14T08:20:26.838Z,29.70
2019-04-14T08:22:48.587Z,29.57
2019-04-14T08:25:18.703Z,27.57
2019-04-14T08:27:48.772Z,29.37
2019-04-14T08:30:19.183Z,29.37
2019-04-14T08:32:49.344Z,28.23
2019-04-14T08:35:19.611Z,30.37
2019-04-14T08:37:50.878Z,30.40
2019-04-14T08:40:20.969Z,30.67
2019-04-14T08:42:58.721Z,32.10
2019-04-14T08:45:45.990Z,31.73
2019-04-14T08:48:24.683Z,34.23
2019-04-14T08:50:59.659Z,32.63
2019-04-14T08:53:31.311Z,34.17
2019-04-14T08:56:09.262Z,33.90
2019-04-14T08:58:50.698Z,32.37
2019-04-14T09:01:28.063Z,31.37
2019-04-14T09:03:59.784Z,33.50
2019-04-14T09:06:31.443Z,28.13
2019-04-14T09:09:09.058Z,30.07
2019-04-14T09:11:52.860Z,30.27
2019-04-14T09:14:22.842Z,29.63
2019-04-14T09:16:54.207Z,29.40
2019-04-14T09:19:24.516Z,30.23
2019-04-14T09:21:54.736Z,29.83
2019-04-14T09:24:24.967Z,29.43
2019-04-14T09:26:56.295Z,29.73
2019-04-14T09:29:27.143Z,29.83
2019-04-14T09:31:57.351Z,29.77
2019-04-14T09:34:27.494Z,29.87
2019-04-14T09:36:58.740Z,30.50
2019-04-14T09:39:28.819Z,31.77
2019-04-14T09:41:58.961Z,32.27
2019-04-14T09:44:29.159Z,30.80
2019-04-14T09:46:59.448Z,34.07
2019-04-14T09:49:29.637Z,33.57
2019-04-14T09:51:59.720Z,31.07
2019-04-14T09:54:29.669Z,29.93
2019-04-14T09:57:00.891Z,30.53
2019-04-14T09:59:30.893Z,32.50
2019-04-14T10:02:01.250Z,32.77
2019-04-14T10:04:31.447Z,31.17
2019-04-14T10:07:02.743Z,28.17
2019-04-14T10:09:32.924Z,31.87
2019-04-14T10:12:03.106Z,27.83
2019-04-14T10:14:33.260Z,27.43
2019-04-14T10:17:04.451Z,29.43
2019-04-14T10:19:35.432Z,29.27
2019-04-14T10:22:05.604Z,29.07
2019-04-14T10:24:35.597Z,29.60
2019-04-14T10:27:05.758Z,32.07
2019-04-14T10:29:35.719Z,31.33
2019-04-14T10:32:06.101Z,27.27
2019-04-14T10:34:36.193Z,32.20
2019-04-14T10:37:06.382Z,38.27
2019-04-14T10:39:36.540Z,31.07
2019-04-14T10:42:06.835Z,28.90
2019-04-14T10:44:36.893Z,30.10
2019-04-14T10:47:07.053Z,30.30
2019-04-14T10:49:37.116Z,30.77
2019-04-14T10:52:07.314Z,29.77
2019-04-14T10:54:38.688Z,30.47
2019-04-14T10:57:10.794Z,32.50
2019-04-14T10:59:51.614Z,29.83
2019-04-14T11:02:23.360Z,28.97
2019-04-14T11:04:56.313Z,29.33
2019-04-14T11:07:30.713Z,30.93
2019-04-14T11:10:00.999Z,29.10
2019-04-14T11:12:34.562Z,28.90
2019-04-14T11:15:07.070Z,28.83
2019-04-14T11:17:39.821Z,26.87
2019-04-14T11:20:11.123Z,28.00
2019-04-14T11:22:41.317Z,28.40
2019-04-14T11:25:11.486Z,27.40
2019-04-14T11:27:41.610Z,28.07
2019-04-14T11:30:13.326Z,27.30
2019-04-14T11:32:47.803Z,28.33
2019-04-14T11:35:22.198Z,27.57
2019-04-14T11:38:10.186Z,28.23
2019-04-14T11:40:41.732Z,28.07
2019-04-14T11:43:11.930Z,28.80
2019-04-14T11:45:41.892Z,28.97
2019-04-14T11:48:12.154Z,29.10
2019-04-14T11:50:42.352Z,29.77
2019-04-14T11:53:12.627Z,28.43
2019-04-14T11:55:42.750Z,28.33
2019-04-14T11:58:13.035Z,28.80
2019-04-14T12:00:54.059Z,27.00
2019-04-14T12:03:38.965Z,28.93
2019-04-14T12:06:19.470Z,26.93
2019-04-14T12:08:51.222Z,27.53
2019-04-14T12:11:21.409Z,26.57
2019-04-14T12:13:51.497Z,28.47
2019-04-14T12:16:21.556Z,27.43
2019-04-14T12:18:51.712Z,25.90
2019-04-14T12:21:22.684Z,25.77
2019-04-14T12:23:53.052Z,26.53
2019-04-14T12:26:23.042Z,27.57
2019-04-14T12:28:53.697Z,26.27
2019-04-14T12:31:24.400Z,26.93
2019-04-14T12:33:54.606Z,26.37
2019-04-14T12:36:24.756Z,27.53
2019-04-14T12:38:55.054Z,27.57
2019-04-14T12:41:31.049Z,27.33
2019-04-14T12:44:09.007Z,28.33
2019-04-14T12:46:46.561Z,28.20
2019-04-14T12:49:25.255Z,26.97
2019-04-14T12:52:21.394Z,27.90
2019-04-14T12:54:48.489Z,26.93
2019-04-14T12:57:21.186Z,27.63
2019-04-14T12:59:51.669Z,28.87
2019-04-14T13:02:23.432Z,27.73
2019-04-14T13:04:55.348Z,27.20
2019-04-14T13:07:44.778Z,28.10
2019-04-14T13:10:15.370Z,26.93
2019-04-14T13:12:45.467Z,27.93
2019-04-14T13:15:27.442Z,28.67
2019-04-14T13:17:57.476Z,28.17
2019-04-14T13:20:27.744Z,29.23
2019-04-14T13:22:58.923Z,30.17
2019-04-14T13:25:29.109Z,29.93
2019-04-14T13:27:59.087Z,29.40
2019-04-14T13:30:30.926Z,29.23
2019-04-14T13:33:00.953Z,27.73
2019-04-14T13:35:50.429Z,27.63
2019-04-14T13:38:20.546Z,26.97
2019-04-14T13:40:50.991Z,28.30
2019-04-14T13:43:21.085Z,31.20
2019-04-14T13:45:51.367Z,28.63
2019-04-14T13:48:33.895Z,27.67
2019-04-14T13:51:16.395Z,28.43
2019-04-14T13:54:05.820Z,29.23
2019-04-14T13:56:37.673Z,27.58
2019-04-14T13:59:07.683Z,27.90
2019-04-14T14:01:37.979Z,29.10
2019-04-14T14:04:08.046Z,26.97
2019-04-14T14:06:38.442Z,27.47
2019-04-14T14:09:10.783Z,27.73
2019-04-14T14:11:45.002Z,27.03
2019-04-14T14:14:19.717Z,27.13
2019-04-14T14:16:59.653Z,27.07
2019-04-14T14:19:43.280Z,28.87
2019-04-14T14:22:15.201Z,27.00
2019-04-14T14:24:56.171Z,26.70
2019-04-14T14:27:26.294Z,28.27
2019-04-14T14:29:56.375Z,28.80
2019-04-14T14:32:30.975Z,28.27
2019-04-14T14:35:00.938Z,29.07
2019-04-14T14:37:31.119Z,27.17
2019-04-14T14:40:01.084Z,26.60
2019-04-14T14:42:32.421Z,25.43
2019-04-14T14:45:17.542Z,25.97
2019-04-14T14:47:54.004Z,25.53
2019-04-14T14:50:25.763Z,28.20
2019-04-14T14:52:55.975Z,25.77
2019-04-14T14:55:25.959Z,28.02
2019-04-14T14:57:56.691Z,26.90
2019-04-14T15:00:31.268Z,27.00
2019-04-14T15:03:01.327Z,28.33
2019-04-14T15:05:31.313Z,26.70
2019-04-14T15:08:01.417Z,26.40
2019-04-14T15:10:31.499Z,27.67
2019-04-14T15:13:02.765Z,26.10
2019-04-14T15:15:32.832Z,27.40
2019-04-14T15:18:03.017Z,27.00
2019-04-14T15:20:33.208Z,28.60
2019-04-14T15:23:03.454Z,27.67
2019-04-14T15:25:34.577Z,27.47
2019-04-14T15:28:06.427Z,27.77
2019-04-14T15:30:37.815Z,27.07
2019-04-14T15:33:08.559Z,28.12
2019-04-14T15:35:38.666Z,28.07
2019-04-14T15:38:08.855Z,27.10
2019-04-14T15:40:38.907Z,27.17
2019-04-14T15:43:08.995Z,27.37
2019-04-14T15:45:38.948Z,27.93
2019-04-14T15:48:09.040Z,28.63
2019-04-14T15:50:39.228Z,27.03
2019-04-14T15:53:09.553Z,26.57
2019-04-14T15:55:39.516Z,27.73
2019-04-14T15:58:12.848Z,27.77
2019-04-14T16:00:44.965Z,25.60
2019-04-14T16:03:22.676Z,26.57
2019-04-14T16:05:54.325Z,27.10
2019-04-14T16:08:42.461Z,28.00
2019-04-14T16:11:13.995Z,26.05
2019-04-14T16:13:45.675Z,26.13
2019-04-14T16:16:17.403Z,25.33
2019-04-14T16:18:49.222Z,25.93
2019-04-14T16:21:19.330Z,30.93
2019-04-14T16:23:50.890Z,27.37
2019-04-14T16:26:23.908Z,25.10
2019-04-14T16:29:02.671Z,25.72
2019-04-14T16:31:52.978Z,25.40
2019-04-14T16:34:27.636Z,25.77
2019-04-14T16:37:03.775Z,26.37
2019-04-14T16:39:33.999Z,26.30
2019-04-14T16:42:04.140Z,25.20
2019-04-14T16:44:34.427Z,26.93
2019-04-14T16:47:05.586Z,25.70
2019-04-14T16:49:35.762Z,25.80
2019-04-14T16:52:10.680Z,26.73
2019-04-14T16:54:51.223Z,25.40
2019-04-14T16:57:31.891Z,26.70
2019-04-14T17:00:01.962Z,25.77
2019-04-14T17:02:33.226Z,26.10
2019-04-14T17:05:03.382Z,28.10
2019-04-14T17:07:34.377Z,30.13
2019-04-14T17:10:05.151Z,30.37
2019-04-14T17:12:35.827Z,27.10
2019-04-14T17:15:25.445Z,25.70
2019-04-14T17:18:10.121Z,24.97
2019-04-14T17:20:44.698Z,26.13
2019-04-14T17:23:16.216Z,24.40
2019-04-14T17:25:47.865Z,24.90
2019-04-14T17:28:39.250Z,23.90
2019-04-14T17:31:17.206Z,23.57
2019-04-14T17:33:48.863Z,21.57
2019-04-14T17:36:29.976Z,22.00
2019-04-14T17:39:01.630Z,20.77
2019-04-14T17:41:41.083Z,23.10
2019-04-14T17:44:25.017Z,27.87
2019-04-14T17:47:13.415Z,20.97
2019-04-14T17:49:44.945Z,20.97
2019-04-14T17:52:19.377Z,22.97
2019-04-14T17:54:56.832Z,20.83
2019-04-14T17:57:34.743Z,21.43
2019-04-14T18:00:17.494Z,21.20
2019-04-14T18:02:58.523Z,20.20
2019-04-14T18:05:36.299Z,19.93
2019-04-14T18:08:17.186Z,20.83
2019-04-14T18:11:07.359Z,19.83
2019-04-14T18:13:42.181Z,20.33
2019-04-14T18:16:19.679Z,20.47
2019-04-14T18:19:01.289Z,20.43
2019-04-14T18:21:31.274Z,20.63
2019-04-14T18:24:01.348Z,20.10
2019-04-14T18:26:31.779Z,20.33
2019-04-14T18:29:20.677Z,20.10
2019-04-14T18:31:52.354Z,20.80
2019-04-14T18:34:25.575Z,19.93
2019-04-14T18:36:57.759Z,20.80
2019-04-14T18:39:45.983Z,21.57
2019-04-14T18:42:20.477Z,20.20
2019-04-14T18:44:53.308Z,21.40
2019-04-14T18:47:35.351Z,21.53
2019-04-14T18:50:11.210Z,19.33
2019-04-14T18:52:43.373Z,20.60
2019-04-14T18:55:17.962Z,20.80
2019-04-14T18:57:49.890Z,20.73
2019-04-14T19:00:21.558Z,20.00
2019-04-14T19:02:52.282Z,19.27
2019-04-14T19:05:23.004Z,18.93
2019-04-14T19:07:53.281Z,18.23
2019-04-14T19:10:24.392Z,19.20
2019-04-14T19:12:59.301Z,18.40
2019-04-14T19:15:43.932Z,18.03
2019-04-14T19:18:29.952Z,19.40
2019-04-14T19:21:05.704Z,18.20
2019-04-14T19:23:36.225Z,19.47
2019-04-14T19:26:06.429Z,19.40
2019-04-14T19:28:36.802Z,19.60
2019-04-14T19:31:07.207Z,19.30
2019-04-14T19:33:37.396Z,19.07
2019-04-14T19:36:07.733Z,18.20
2019-04-14T19:38:38.947Z,30.90
2019-04-14T19:41:25.707Z,21.03
2019-04-14T19:44:00.666Z,20.57
2019-04-14T19:46:40.667Z,17.60
2019-04-14T19:49:19.202Z,17.97
2019-04-14T19:51:52.721Z,20.10
2019-04-14T19:54:27.843Z,18.27
2019-04-14T19:56:58.143Z,18.60
2019-04-14T19:59:29.314Z,18.53
2019-04-14T20:01:59.622Z,17.87
2019-04-14T20:04:30.093Z,17.53
2019-04-14T20:07:20.656Z,17.60
2019-04-14T20:09:50.900Z,18.53
2019-04-14T20:12:21.304Z,17.93
2019-04-14T20:14:51.593Z,18.37
2019-04-14T20:17:23.473Z,16.90
2019-04-14T20:20:11.477Z,16.27
2019-04-14T20:22:52.235Z,17.43
2019-04-14T20:25:33.727Z,18.13
2019-04-14T20:28:09.118Z,17.87
2019-04-14T20:30:41.059Z,17.40
2019-04-14T20:33:13.939Z,17.10
2019-04-14T20:35:44.119Z,16.77
2019-04-14T20:38:14.308Z,17.67
2019-04-14T20:40:44.621Z,17.50
2019-04-14T20:43:14.901Z,17.83
2019-04-14T20:45:45.264Z,17.43
2019-04-14T20:48:15.447Z,17.47
2019-04-14T20:50:45.640Z,17.90
2019-04-14T20:53:15.823Z,17.80
2019-04-14T20:55:47.248Z,18.13
2019-04-14T20:58:17.698Z,19.60
2019-04-14T21:00:47.945Z,19.83
2019-04-14T21:03:19.588Z,20.03
2019-04-14T21:05:53.722Z,19.40
2019-04-14T21:08:25.267Z,20.40
2019-04-14T21:10:56.935Z,20.57
2019-04-14T21:13:28.465Z,20.33
2019-04-14T21:16:12.559Z,20.97
2019-04-14T21:18:45.105Z,22.40
2019-04-14T21:21:29.301Z,21.47
2019-04-14T21:24:00.981Z,19.37
2019-04-14T21:26:38.806Z,19.37
2019-04-14T21:29:10.432Z,20.07
2019-04-14T21:31:51.180Z,47.27
2019-04-14T21:34:22.733Z,29.37
2019-04-14T21:36:55.616Z,25.67
2019-04-14T21:39:40.586Z,21.77
2019-04-14T21:42:11.011Z,20.07
2019-04-14T21:44:41.195Z,18.87
2019-04-14T21:47:14.750Z,19.67
2019-04-14T21:49:44.739Z,19.97
2019-04-14T21:52:20.722Z,19.47
2019-04-14T21:54:50.784Z,19.90
2019-04-14T21:57:34.533Z,18.70
2019-04-14T22:00:27.004Z,19.23
2019-04-14T22:03:18.065Z,19.17
2019-04-14T22:05:49.742Z,19.23
2019-04-14T22:08:21.478Z,19.27
2019-04-14T22:10:56.071Z,19.17
2019-04-14T22:13:26.168Z,19.37
2019-04-14T22:15:57.393Z,19.33
2019-04-14T22:18:27.531Z,19.03
2019-04-14T22:20:57.618Z,18.13
2019-04-14T22:23:27.802Z,18.50
2019-04-14T22:25:57.769Z,18.77
2019-04-14T22:28:27.847Z,17.30
2019-04-14T22:30:57.999Z,20.00
2019-04-14T22:33:28.186Z,21.53
2019-04-14T22:35:58.245Z,18.87
2019-04-14T22:38:28.480Z,17.80
2019-04-14T22:40:58.681Z,17.23
2019-04-14T22:43:28.949Z,17.73
2019-04-14T22:45:58.936Z,18.10
2019-04-14T22:48:29.100Z,16.70
2019-04-14T22:50:59.164Z,17.43
2019-04-14T22:53:29.346Z,16.40
2019-04-14T22:55:59.331Z,17.27
2019-04-14T22:58:29.516Z,15.93
2019-04-14T23:01:02.482Z,16.67
2019-04-14T23:03:34.780Z,16.80
2019-04-14T23:09:11.822Z,16.03
2019-04-14T23:11:59.898Z,17.03
2019-04-14T23:14:34.657Z,16.40
2019-04-14T23:17:22.835Z,15.60
2019-04-14T23:20:00.633Z,17.17
2019-04-14T23:22:33.380Z,16.83
2019-04-14T23:25:03.647Z,16.37
2019-04-14T23:27:37.653Z,16.27
2019-04-14T23:30:08.367Z,17.13
2019-04-14T23:32:38.356Z,15.87
2019-04-14T23:35:09.700Z,17.43
2019-04-14T23:37:43.224Z,17.40
2019-04-14T23:40:13.599Z,18.07
2019-04-14T23:42:43.547Z,16.33
2019-04-14T23:45:13.982Z,18.07
2019-04-14T23:47:46.148Z,17.67
2019-04-14T23:50:16.539Z,16.90
2019-04-14T23:52:46.533Z,17.50
2019-04-14T23:55:16.644Z,16.70
2019-04-14T23:57:49.858Z,17.70
